KHST

Homestead ARB Airport

Homestead, Florida, USA
METAR KHST 151856Z AUTO 08008KT 10SM CLR 26/19 A2993 RMK AO2 DZB15E25DZB37E40 SLP139 P0000 T02600186 FZRANO $
Observed Flight Rules
Feb-15 @ 18:56 UTC (46 minutes ago) Visual Flight Rules
Wind Visibility Clouds
80° at 8 knots 10 miles
  • Clear skies
Temperatures Readings Precipitation
Current 26°C / 79°F
Dewpoint 19°C / 66°F
Humidity 65%
Altimeter 29.93" Hg
Pressure 1013.9 hPa
Elevation 2
Current Rain 0.01
METAR KHST 151856Z AUTO 08008KT 10SM CLR 26/19 A2993 RMK AO2 DZB15E25DZB37E40 SLP139 P0000 T02600186 FZRANO $
Observed Flight Rules
Feb-15 @ 18:56 UTC
(46 minutes ago)
VFR
Wind Visibility
80° at 8 knots 10 miles
Clouds
  • Clear skies
Temperature Dewpoint
26°C / 79°F 19°C / 66°F
Humidity Altimeter Pressure
65% 29.93" Hg 1013.9 hPa
Current Rain
0.01